Time;durP1;ratioP1;P1;durP2;ratioP2;P2;SDS_P1;SDS_P2;PMS_P1;PMS_P2;Temp;Humidity;BMP_temperature;BMP_pressure;BME280_temperature;BME280_humidity;BME280_pressure;Samples;Min_cycle;Max_cycle;Signal;HPM_P1;HPM_P2
2022/04/25 00:01:55;;;;;;;4.77;4.10;;;6.90;99.90;;;;;;5053497;28;20181;-69
2022/04/25 00:04:20;;;;;;;10.80;3.80;;;6.80;99.90;;;;;;5052704;28;20554;-68
2022/04/25 00:06:46;;;;;;;7.40;4.23;;;6.80;99.90;;;;;;5052521;28;20198;-68
2022/04/25 00:09:11;;;;;;;4.70;3.73;;;6.80;99.90;;;;;;5053011;28;20194;-67
2022/04/25 00:11:36;;;;;;;5.33;3.93;;;6.70;99.90;;;;;;5053240;28;20167;-67
2022/04/25 00:14:02;;;;;;;7.20;4.00;;;6.80;99.90;;;;;;5053064;28;20228;-67
2022/04/25 00:16:28;;;;;;;4.53;4.10;;;6.70;99.90;;;;;;5053692;28;20175;-69
2022/04/25 00:18:53;;;;;;;6.17;5.17;;;6.70;99.90;;;;;;5034608;28;20689;-68
2022/04/25 00:21:19;;;;;;;8.83;4.87;;;6.70;99.90;;;;;;5034699;28;20182;-67
2022/04/25 00:23:44;;;;;;;6.03;4.13;;;6.70;99.90;;;;;;5052186;28;20175;-68
2022/04/25 00:26:10;;;;;;;6.23;3.50;;;6.70;99.90;;;;;;5052488;28;20645;-67
2022/04/25 00:28:35;;;;;;;4.17;3.40;;;6.70;99.90;;;;;;5052463;28;20541;-67
2022/04/25 00:31:01;;;;;;;7.60;4.50;;;6.70;99.90;;;;;;5053677;28;20569;-67
2022/04/25 00:33:27;;;;;;;7.60;4.20;;;6.70;99.90;;;;;;5056078;28;20225;-67
2022/04/25 00:35:53;;;;;;;6.03;4.90;;;6.70;99.90;;;;;;5055703;28;20799;-67
2022/04/25 00:38:18;;;;;;;7.40;4.70;;;6.70;99.90;;;;;;5056136;28;20191;-67
2022/04/25 00:40:44;;;;;;;6.10;5.50;;;6.70;99.90;;;;;;5057045;28;20263;-68
2022/04/25 00:43:09;;;;;;;4.40;3.80;;;6.70;99.90;;;;;;5056716;28;20640;-68
2022/04/25 00:45:35;;;;;;;6.17;4.67;;;6.70;99.90;;;;;;5056587;28;20171;-68
2022/04/25 00:48:02;;;;;;;7.17;5.43;;;6.70;99.90;;;;;;5057059;28;20239;-67
2022/04/25 00:50:28;;;;;;;7.30;5.37;;;6.70;99.90;;;;;;5057230;28;20262;-68
2022/04/25 00:52:54;;;;;;;5.60;4.80;;;6.70;99.90;;;;;;5057221;28;20412;-68
2022/04/25 00:55:20;;;;;;;8.20;4.20;;;6.70;99.90;;;;;;5056654;28;20398;-68
2022/04/25 00:57:46;;;;;;;6.93;4.67;;;6.70;99.90;;;;;;5039117;28;20425;-68
2022/04/25 01:00:13;;;;;;;5.63;5.13;;;6.70;99.90;;;;;;5056640;28;20175;-68
2022/04/25 01:02:40;;;;;;;8.40;5.10;;;6.70;99.90;;;;;;5055150;28;20475;-67
2022/04/25 01:05:06;;;;;;;6.73;5.20;;;6.70;99.90;;;;;;5055900;28;20416;-68
2022/04/25 01:07:34;;;;;;;6.33;3.90;;;6.60;99.90;;;;;;5057501;28;20459;-69
2022/04/25 01:10:00;;;;;;;8.80;6.40;;;6.60;99.90;;;;;;5058584;28;20429;-69
2022/04/25 01:12:27;;;;;;;8.63;4.97;;;6.60;99.90;;;;;;5057857;28;20416;-69
2022/04/25 01:15:08;;;;;;;6.30;4.73;;;6.60;99.90;;;;;;5059090;28;20175;-69
2022/04/25 01:17:34;;;;;;;10.40;5.80;;;6.60;99.90;;;;;;5057569;28;20408;-69
2022/04/25 01:19:59;;;;;;;8.57;5.73;;;6.60;99.90;;;;;;5056147;28;20437;-68
2022/04/25 01:22:31;;;;;;;7.10;5.23;;;6.60;99.90;;;;;;5056349;28;20423;-68
2022/04/25 01:27:42;;;;;;;6.00;5.43;;;6.60;99.90;;;;;;5056571;28;20472;-68
2022/04/25 01:30:09;;;;;;;7.57;4.93;;;6.50;99.90;;;;;;5055852;28;20420;-69
2022/04/25 01:32:36;;;;;;;7.47;5.33;;;6.50;99.90;;;;;;5056001;28;20409;-67
2022/04/25 01:35:01;;;;;;;8.67;5.60;;;6.50;99.90;;;;;;5056176;28;20412;-68
2022/04/25 01:37:27;;;;;;;9.60;4.80;;;6.50;99.90;;;;;;5056891;28;20405;-68
2022/04/25 01:39:54;;;;;;;6.00;5.13;;;6.50;99.90;;;;;;5056908;28;20201;-68
2022/04/25 01:42:20;;;;;;;5.47;4.97;;;6.50;99.90;;;;;;5055921;28;20262;-68
2022/04/25 01:44:46;;;;;;;9.43;4.87;;;6.40;99.90;;;;;;5055706;28;20496;-68
2022/04/25 01:47:12;;;;;;;7.17;6.03;;;6.40;99.90;;;;;;5056677;28;20194;-68
2022/04/25 01:49:38;;;;;;;8.10;5.57;;;6.50;99.90;;;;;;5057200;28;20483;-68
2022/04/25 01:52:17;;;;;;;8.07;5.77;;;6.40;99.90;;;;;;5056613;28;20167;-67
2022/04/25 01:54:43;;;;;;;9.53;5.50;;;6.50;99.90;;;;;;5056289;28;20401;-68
2022/04/25 01:57:08;;;;;;;8.37;4.83;;;6.50;99.90;;;;;;5056779;28;20405;-68
2022/04/25 01:59:34;;;;;;;13.43;7.10;;;6.40;99.90;;;;;;5054684;28;20433;-68
2022/04/25 02:02:01;;;;;;;7.83;5.43;;;6.40;99.90;;;;;;5055854;28;20201;-67
2022/04/25 02:04:27;;;;;;;7.50;6.00;;;6.40;99.90;;;;;;5056204;28;20167;-68
2022/04/25 02:06:52;;;;;;;7.30;5.10;;;6.40;99.90;;;;;;5055230;28;20923;-67
2022/04/25 02:09:20;;;;;;;9.70;4.93;;;6.40;99.90;;;;;;5055322;28;20709;-68
2022/04/25 02:11:45;;;;;;;13.47;5.60;;;6.40;99.90;;;;;;5055112;28;20245;-69
2022/04/25 02:14:11;;;;;;;7.10;5.03;;;6.40;99.90;;;;;;5055424;28;20433;-68
2022/04/25 02:16:37;;;;;;;7.83;4.97;;;6.30;99.90;;;;;;5056357;28;20167;-68
2022/04/25 02:19:03;;;;;;;5.70;4.77;;;6.30;99.90;;;;;;5056522;28;20210;-68
2022/04/25 02:21:28;;;;;;;8.03;5.50;;;6.30;99.90;;;;;;5055488;28;20430;-67
2022/04/25 02:23:54;;;;;;;10.97;6.60;;;6.30;99.90;;;;;;5055484;28;20535;-67
2022/04/25 02:26:19;;;;;;;9.73;5.70;;;6.20;99.90;;;;;;5055211;28;20218;-68
2022/04/25 02:28:45;;;;;;;9.20;5.80;;;6.20;99.90;;;;;;5054981;28;20274;-68
2022/04/25 02:31:11;;;;;;;13.87;7.57;;;6.20;99.90;;;;;;5037526;28;20680;-68
2022/04/25 02:33:36;;;;;;;7.67;5.70;;;6.20;99.90;;;;;;5054700;28;20536;-67
2022/04/25 02:36:04;;;;;;;11.17;5.57;;;6.20;99.90;;;;;;5055227;28;20163;-68
2022/04/25 02:38:33;;;;;;;9.63;7.17;;;6.10;99.90;;;;;;5054742;28;20194;-68
2022/04/25 02:41:05;;;;;;;9.90;5.27;;;6.20;99.90;;;;;;5054938;28;20421;-68
2022/04/25 02:43:34;;;;;;;7.67;6.40;;;6.10;99.90;;;;;;5054639;28;20398;-68
2022/04/25 02:46:00;;;;;;;14.03;7.23;;;6.10;99.90;;;;;;5054664;28;20488;-68
2022/04/25 02:48:26;;;;;;;7.80;5.93;;;6.10;99.90;;;;;;5054811;28;20468;-68
2022/04/25 02:50:52;;;;;;;8.20;5.93;;;6.10;99.90;;;;;;5054856;28;20769;-68
2022/04/25 02:53:17;;;;;;;6.60;5.63;;;6.10;99.90;;;;;;5053786;28;20175;-67
2022/04/25 02:55:42;;;;;;;9.23;6.23;;;6.10;99.90;;;;;;5053352;28;20174;-67
2022/04/25 02:58:11;;;;;;;12.13;7.67;;;6.10;99.90;;;;;;5053474;28;20202;-67
2022/04/25 03:00:37;;;;;;;10.67;7.47;;;6.00;99.90;;;;;;5053568;28;20687;-67
2022/04/25 03:03:02;;;;;;;8.23;6.17;;;6.00;99.90;;;;;;5035768;28;20413;-67
2022/04/25 03:05:28;;;;;;;8.97;5.97;;;6.00;99.90;;;;;;5053446;28;20707;-67
2022/04/25 03:07:54;;;;;;;8.60;6.70;;;5.90;99.90;;;;;;5053203;28;20263;-67
2022/04/25 03:10:19;;;;;;;10.43;6.30;;;5.90;99.90;;;;;;5053518;28;20177;-68
2022/04/25 03:12:44;;;;;;;7.90;5.27;;;5.90;99.90;;;;;;5053160;28;20425;-68
2022/04/25 03:15:10;;;;;;;9.87;6.57;;;5.90;99.90;;;;;;5053135;28;20191;-68
2022/04/25 03:17:35;;;;;;;9.70;7.77;;;5.90;99.90;;;;;;5035401;28;20171;-68
2022/04/25 03:20:01;;;;;;;9.97;5.17;;;5.90;99.90;;;;;;5052745;28;20578;-69
2022/04/25 03:22:27;;;;;;;8.23;6.83;;;5.90;99.90;;;;;;5053676;28;20174;-69
2022/04/25 03:24:53;;;;;;;10.93;6.53;;;5.90;99.90;;;;;;5053823;28;20253;-68
2022/04/25 03:27:18;;;;;;;10.23;6.50;;;5.80;99.90;;;;;;5053543;28;20586;-68
2022/04/25 03:29:44;;;;;;;10.80;6.37;;;5.80;99.90;;;;;;5052624;28;20194;-67
2022/04/25 03:32:09;;;;;;;9.00;5.50;;;5.80;99.90;;;;;;5053053;28;20164;-67
2022/04/25 03:34:37;;;;;;;9.27;6.90;;;5.80;99.90;;;;;;5055561;28;20171;-67
2022/04/25 03:37:03;;;;;;;10.33;5.77;;;5.80;99.90;;;;;;5055366;28;20600;-67
2022/04/25 03:39:29;;;;;;;9.80;6.83;;;5.80;99.90;;;;;;5053053;28;20469;-67
2022/04/25 03:41:54;;;;;;;7.50;6.87;;;5.80;99.90;;;;;;5053138;28;20435;-67
2022/04/25 03:44:20;;;;;;;8.73;5.90;;;5.80;99.90;;;;;;5053188;28;20406;-67
2022/04/25 03:46:46;;;;;;;9.57;7.00;;;5.80;99.90;;;;;;5053742;28;20186;-68
2022/04/25 03:49:11;;;;;;;11.93;8.63;;;5.80;99.90;;;;;;5053854;28;20195;-67
2022/04/25 03:51:36;;;;;;;6.90;5.03;;;5.90;99.90;;;;;;5053945;28;20210;-67
2022/04/25 03:54:02;;;;;;;11.00;7.83;;;5.90;99.90;;;;;;5036308;28;20175;-68
2022/04/25 03:59:13;;;;;;;6.93;5.47;;;5.90;99.90;;;;;;5054165;28;20197;-68
2022/04/25 04:01:38;;;;;;;8.13;5.33;;;5.90;99.90;;;;;;5053587;28;20500;-69
2022/04/25 04:04:05;;;;;;;7.27;5.40;;;5.90;99.90;;;;;;5052468;28;20437;-69
2022/04/25 04:06:33;;;;;;;10.70;6.07;;;5.90;99.90;;;;;;5054058;28;20198;-67
2022/04/25 04:09:44;;;;;;;6.93;5.50;;;5.90;99.90;;;;;;5056974;28;20486;-68
2022/04/25 04:11:47;;;;;;;13.07;7.03;;;5.90;99.90;;;;;;5056629;28;20409;-68
2022/04/25 04:14:13;;;;;;;7.77;6.23;;;5.90;99.90;;;;;;5057004;28;20393;-67
2022/04/25 04:16:39;;;;;;;12.90;6.30;;;5.90;99.90;;;;;;5056798;28;20413;-68
2022/04/25 04:19:05;;;;;;;8.17;6.10;;;5.90;99.90;;;;;;5082800;22;20635;-71
2022/04/25 04:21:30;;;;;;;9.63;6.50;;;5.90;99.90;;;;;;5075359;28;20223;-69
2022/04/25 04:23:56;;;;;;;9.10;7.03;;;5.90;99.90;;;;;;5075747;28;20400;-70
2022/04/25 04:26:21;;;;;;;8.33;6.87;;;6.00;99.90;;;;;;5075506;28;20557;-70
2022/04/25 04:28:47;;;;;;;10.07;6.20;;;5.90;99.90;;;;;;5074014;28;20189;-70
2022/04/25 04:31:12;;;;;;;9.23;6.93;;;5.90;99.90;;;;;;5075381;28;20673;-69
2022/04/25 04:33:38;;;;;;;8.50;5.70;;;5.90;99.90;;;;;;5075698;28;20592;-70
2022/04/25 04:36:18;;;;;;;9.50;5.80;;;5.90;99.90;;;;;;5070926;28;20493;-69
2022/04/25 04:38:45;;;;;;;9.00;5.70;;;6.00;99.90;;;;;;5070201;28;20574;-69
2022/04/25 04:41:11;;;;;;;17.20;7.23;;;5.90;99.90;;;;;;5061395;28;20516;-69
2022/04/25 04:43:40;;;;;;;12.20;7.60;;;6.00;99.90;;;;;;5055488;28;20508;-70
2022/04/25 04:46:06;;;;;;;7.77;5.80;;;6.00;99.90;;;;;;5074250;28;20852;-69
2022/04/25 04:48:31;;;;;;;11.40;7.33;;;6.00;99.90;;;;;;5074713;28;20409;-70
2022/04/25 04:50:58;;;;;;;8.27;5.50;;;6.10;99.90;;;;;;5075243;28;20205;-69
2022/04/25 04:53:24;;;;;;;8.33;5.33;;;6.10;99.90;;;;;;5066276;28;20159;-70
2022/04/25 04:55:51;;;;;;;7.60;5.77;;;6.10;99.90;;;;;;5055138;28;20416;-70
2022/04/25 04:58:18;;;;;;;8.50;5.73;;;6.10;99.90;;;;;;5072662;28;20922;-70
2022/04/25 05:00:44;;;;;;;9.97;6.70;;;6.10;99.90;;;;;;5075117;28;20432;-69
2022/04/25 05:03:13;;;;;;;7.83;5.87;;;6.10;99.90;;;;;;5074734;28;20518;-70
2022/04/25 05:05:39;;;;;;;7.30;6.60;;;6.10;99.90;;;;;;5075060;28;20404;-71
2022/04/25 05:08:05;;;;;;;10.10;5.10;;;6.20;99.90;;;;;;5075078;28;20455;-68
2022/04/25 05:10:30;;;;;;;10.43;6.30;;;6.20;99.90;;;;;;5065507;28;20460;-69
2022/04/25 05:12:56;;;;;;;6.37;4.70;;;6.20;99.90;;;;;;5054833;28;20205;-70
2022/04/25 05:15:22;;;;;;;7.17;4.97;;;6.30;99.90;;;;;;5071522;28;20265;-68
2022/04/25 05:17:49;;;;;;;7.60;4.70;;;6.30;99.90;;;;;;5074766;28;20174;-68
2022/04/25 05:20:15;;;;;;;8.67;5.23;;;6.40;99.90;;;;;;5074492;28;20452;-69
2022/04/25 05:22:44;;;;;;;11.83;5.47;;;6.40;99.90;;;;;;5074445;28;20404;-69
2022/04/25 05:25:14;;;;;;;9.63;6.47;;;6.50;99.90;;;;;;5074454;28;20538;-68
2022/04/25 05:27:43;;;;;;;9.73;4.97;;;6.60;99.90;;;;;;5074480;28;20456;-68
2022/04/25 05:30:10;;;;;;;7.40;5.03;;;6.60;99.90;;;;;;5074374;28;20419;-69
2022/04/25 05:32:47;;;;;;;12.20;5.70;;;6.60;99.90;;;;;;5074386;28;20491;-68
2022/04/25 05:35:14;;;;;;;7.97;6.57;;;6.50;99.90;;;;;;5074313;28;20434;-70
2022/04/25 05:37:40;;;;;;;5.27;4.40;;;6.60;99.90;;;;;;5074223;28;20761;-69
2022/04/25 05:40:06;;;;;;;8.80;4.90;;;6.60;99.90;;;;;;5074170;28;20458;-69
2022/04/25 05:42:33;;;;;;;6.20;4.30;;;6.70;99.90;;;;;;5074449;28;20232;-69
2022/04/25 05:45:00;;;;;;;6.03;3.70;;;6.70;99.90;;;;;;5074016;28;20417;-70
2022/04/25 05:47:26;;;;;;;7.60;4.77;;;6.80;99.90;;;;;;5073682;28;20501;-69
2022/04/25 05:52:36;;;;;;;5.37;4.70;;;6.80;99.90;;;;;;5073944;28;20215;-70
2022/04/25 05:55:02;;;;;;;7.23;3.97;;;6.90;99.90;;;;;;5073930;28;20409;-70
2022/04/25 05:57:28;;;;;;;8.10;4.93;;;6.80;99.90;;;;;;5074299;28;20243;-69
2022/04/25 05:59:53;;;;;;;6.60;4.57;;;6.80;99.90;;;;;;5073782;28;20424;-69
2022/04/25 06:02:19;;;;;;;4.73;4.10;;;6.90;99.90;;;;;;5073867;28;20327;-69
2022/04/25 06:04:44;;;;;;;7.07;4.17;;;6.90;99.90;;;;;;5073867;28;20170;-69
2022/04/25 06:07:10;;;;;;;6.73;4.20;;;7.00;99.90;;;;;;5073455;28;20260;-70
2022/04/25 06:09:35;;;;;;;5.07;4.30;;;7.00;99.90;;;;;;5073518;28;20183;-70
2022/04/25 06:12:02;;;;;;;5.37;3.63;;;7.00;99.90;;;;;;5073623;28;20242;-69
2022/04/25 06:14:31;;;;;;;6.03;4.07;;;7.10;99.90;;;;;;5074214;28;20703;-68
2022/04/25 06:16:57;;;;;;;5.33;3.53;;;7.00;99.90;;;;;;5073495;28;20491;-70
2022/04/25 06:19:23;;;;;;;5.30;3.50;;;7.10;99.90;;;;;;5073378;28;20589;-71
2022/04/25 06:21:48;;;;;;;4.03;3.63;;;7.20;99.90;;;;;;5073692;28;20886;-70
2022/04/25 06:24:14;;;;;;;4.40;3.33;;;7.20;99.90;;;;;;5073441;28;20245;-69
2022/04/25 06:26:39;;;;;;;5.07;3.43;;;7.10;99.90;;;;;;5073604;28;20186;-69
2022/04/25 06:29:04;;;;;;;7.10;3.43;;;7.10;99.90;;;;;;5072998;28;20231;-70
2022/04/25 06:31:30;;;;;;;4.00;3.30;;;7.20;99.90;;;;;;5073371;28;20166;-70
2022/04/25 06:33:57;;;;;;;4.47;2.97;;;7.20;99.90;;;;;;5073459;28;20166;-68
2022/04/25 06:36:23;;;;;;;5.03;3.70;;;7.20;99.90;;;;;;5073426;28;20197;-69
2022/04/25 06:38:48;;;;;;;3.30;3.00;;;7.40;99.90;;;;;;5073039;28;20428;-70
2022/04/25 06:41:14;;;;;;;8.00;3.90;;;7.40;99.90;;;;;;5073086;28;20640;-70
2022/04/25 06:43:40;;;;;;;4.33;2.70;;;7.40;99.90;;;;;;5073080;28;20189;-70
2022/04/25 06:46:05;;;;;;;4.40;3.60;;;7.40;99.90;;;;;;5072987;28;20396;-70
2022/04/25 06:48:31;;;;;;;3.37;3.07;;;7.50;99.90;;;;;;5072821;28;20454;-70
2022/04/25 06:50:57;;;;;;;2.90;2.70;;;7.60;99.90;;;;;;5073087;28;20167;-71
2022/04/25 06:53:24;;;;;;;5.67;3.27;;;7.50;99.90;;;;;;5073221;28;20657;-71
2022/04/25 06:55:49;;;;;;;4.93;3.43;;;7.50;99.90;;;;;;5072817;28;20407;-71
2022/04/25 06:58:15;;;;;;;4.50;3.53;;;7.50;99.90;;;;;;5072674;28;20495;-72
2022/04/25 07:00:40;;;;;;;5.40;3.47;;;7.60;99.90;;;;;;5072280;28;20202;-70
2022/04/25 07:03:06;;;;;;;3.40;2.50;;;7.70;99.90;;;;;;5072323;28;20175;-69
2022/04/25 07:05:31;;;;;;;3.50;3.20;;;7.70;99.90;;;;;;5072461;28;20181;-70
2022/04/25 07:07:57;;;;;;;11.83;3.90;;;7.70;99.90;;;;;;5072238;28;20194;-69
2022/04/25 07:10:22;;;;;;;4.77;3.27;;;7.90;99.90;;;;;;5072207;28;20779;-69
2022/04/25 07:12:48;;;;;;;3.53;3.17;;;7.90;99.90;;;;;;5072167;28;20249;-69
2022/04/25 07:15:14;;;;;;;3.80;3.37;;;7.90;99.90;;;;;;5072007;28;20162;-70
2022/04/25 07:17:39;;;;;;;8.00;3.80;;;8.00;99.90;;;;;;5072197;28;20527;-69
2022/04/25 07:20:05;;;;;;;3.03;2.73;;;8.00;99.90;;;;;;5071791;28;20222;-69
2022/04/25 07:30:43;;;;;;;4.33;3.00;;;7.80;99.90;;;;;;5071922;28;20423;-70
2022/04/25 07:33:08;;;;;;;5.03;3.80;;;7.90;99.90;;;;;;5071879;28;20879;-69
2022/04/25 07:35:35;;;;;;;5.10;2.57;;;8.00;99.90;;;;;;5071866;28;20166;-69
2022/04/25 07:38:00;;;;;;;8.90;3.03;;;8.00;99.90;;;;;;5071889;28;20255;-73
2022/04/25 07:40:26;;;;;;;2.57;2.37;;;8.00;99.90;;;;;;5071178;28;20833;-68
2022/04/25 07:42:51;;;;;;;6.23;3.03;;;8.10;99.90;;;;;;5071394;28;20171;-69
2022/04/25 07:45:16;;;;;;;3.30;2.30;;;8.10;99.90;;;;;;5054809;28;20183;-69
2022/04/25 07:47:45;;;;;;;2.60;2.40;;;8.20;99.90;;;;;;5071791;28;20254;-69
2022/04/25 07:50:11;;;;;;;3.00;2.80;;;8.00;99.90;;;;;;5071645;28;20202;-69
2022/04/25 07:52:36;;;;;;;3.03;2.73;;;8.00;99.90;;;;;;5071686;28;21049;-69
2022/04/25 07:55:03;;;;;;;8.50;4.30;;;8.10;99.90;;;;;;5071698;28;20207;-70
2022/04/25 07:57:29;;;;;;;3.90;2.30;;;8.10;99.90;;;;;;5071243;28;20259;-71
2022/04/25 07:59:56;;;;;;;8.20;2.70;;;8.20;99.90;;;;;;5071521;28;20486;-69
2022/04/25 08:02:23;;;;;;;3.03;2.77;;;8.30;99.90;;;;;;5071850;28;20182;-69
2022/04/25 08:04:48;;;;;;;4.20;2.87;;;8.40;99.90;;;;;;5071626;28;20551;-69
2022/04/25 08:07:14;;;;;;;3.87;3.40;;;8.50;99.90;;;;;;5071608;28;20532;-69
2022/04/25 08:09:40;;;;;;;4.17;3.30;;;8.50;99.90;;;;;;5071575;28;20182;-70
2022/04/25 08:20:17;;;;;;;4.60;2.50;;;8.70;99.90;;;;;;5071305;28;20902;-70
2022/04/25 08:22:43;;;;;;;2.60;2.40;;;8.70;99.90;;;;;;5071217;28;20409;-69
2022/04/25 08:25:10;;;;;;;6.20;3.33;;;9.00;99.90;;;;;;5071354;28;20186;-68
2022/04/25 08:27:36;;;;;;;3.30;2.47;;;9.10;99.90;;;;;;5071398;28;20608;-69
2022/04/25 08:30:02;;;;;;;3.43;2.30;;;9.10;99.90;;;;;;5071502;28;20430;-71
2022/04/25 08:32:28;;;;;;;6.00;2.97;;;9.30;99.90;;;;;;5071575;28;20169;-68
2022/04/25 08:34:53;;;;;;;6.27;3.20;;;9.30;99.90;;;;;;5071361;28;20921;-68
2022/04/25 08:37:19;;;;;;;4.10;2.53;;;9.20;99.90;;;;;;5071344;28;20182;-68
2022/04/25 08:39:44;;;;;;;4.17;3.00;;;9.20;99.90;;;;;;5071260;28;20193;-68
2022/04/25 08:42:10;;;;;;;4.10;2.70;;;9.20;99.90;;;;;;5071209;28;20174;-68
2022/04/25 08:44:37;;;;;;;3.33;2.50;;;9.40;99.90;;;;;;5071218;28;20171;-68
2022/04/25 08:47:04;;;;;;;4.00;2.83;;;9.60;99.90;;;;;;5071499;28;20201;-69
2022/04/25 08:49:30;;;;;;;6.23;3.57;;;9.80;99.90;;;;;;5071052;28;20849;-69
2022/04/25 08:51:59;;;;;;;2.93;2.70;;;9.90;99.90;;;;;;5071317;28;20400;-68
2022/04/25 08:54:29;;;;;;;4.27;2.30;;;9.90;99.90;;;;;;5074792;28;20917;-69
2022/04/25 08:56:55;;;;;;;2.90;2.10;;;9.80;99.90;;;;;;5074806;28;20408;-68
2022/04/25 08:59:22;;;;;;;2.30;2.10;;;9.60;99.90;;;;;;5074378;28;20815;-69
2022/04/25 09:01:47;;;;;;;2.90;2.30;;;10.00;99.90;;;;;;5074543;28;20170;-68
2022/04/25 09:04:13;;;;;;;1.83;1.53;;;10.20;99.90;;;;;;5074882;28;20401;-69
2022/04/25 09:06:39;;;;;;;4.10;3.47;;;10.20;99.90;;;;;;5074031;28;20280;-69
2022/04/25 09:09:04;;;;;;;2.60;2.40;;;9.90;99.90;;;;;;5074411;28;20243;-68
2022/04/25 09:14:14;;;;;;;2.63;2.10;;;9.80;99.90;;;;;;5074625;28;20604;-68
2022/04/25 09:16:40;;;;;;;2.83;2.53;;;10.00;99.90;;;;;;5074289;28;20413;-67
2022/04/25 09:19:06;;;;;;;3.27;1.93;;;10.20;99.90;;;;;;5074236;28;20448;-69
2022/04/25 09:21:41;;;;;;;2.70;2.33;;;10.30;99.90;;;;;;5074497;28;20415;-69
2022/04/25 09:24:26;;;;;;;3.20;2.90;;;10.50;99.90;;;;;;5074408;28;20412;-69
2022/04/25 09:26:53;;;;;;;3.33;2.50;;;10.70;99.90;;;;;;5074072;28;20440;-68
2022/04/25 09:29:28;;;;;;;2.17;1.97;;;10.70;99.90;;;;;;5074085;28;20424;-68
2022/04/25 09:31:54;;;;;;;2.70;2.00;;;10.80;99.90;;;;;;5074015;28;20407;-68
2022/04/25 09:34:59;;;;;;;4.03;2.13;;;11.40;99.90;;;;;;5074302;28;20895;-71
2022/04/25 09:37:15;;;;;;;2.20;2.00;;;11.50;99.90;;;;;;5073766;28;20535;-69
2022/04/25 09:39:40;;;;;;;2.53;2.10;;;11.30;99.90;;;;;;5074004;28;20519;-69
2022/04/25 09:42:07;;;;;;;3.50;2.30;;;11.40;99.90;;;;;;5073829;28;20492;-70
2022/04/25 09:44:58;;;;;;;2.00;1.80;;;11.40;99.90;;;;;;5073698;28;20202;-69
2022/04/25 09:47:27;;;;;;;3.90;2.23;;;11.20;99.90;;;;;;5073821;28;20448;-68
2022/04/25 09:50:06;;;;;;;2.20;2.00;;;11.60;99.90;;;;;;5073596;28;20425;-69
2022/04/25 09:52:33;;;;;;;3.00;2.20;;;11.90;99.90;;;;;;5073864;28;20404;-68
2022/04/25 09:55:26;;;;;;;2.77;2.40;;;11.90;99.90;;;;;;5073683;28;20428;-69
2022/04/25 09:57:52;;;;;;;4.50;2.37;;;11.90;99.90;;;;;;5071067;28;20507;-71
2022/04/25 10:00:34;;;;;;;2.20;2.00;;;11.70;99.90;;;;;;5056777;28;20433;-69
2022/04/25 10:03:03;;;;;;;2.50;2.00;;;11.90;99.90;;;;;;5054827;28;20942;-70
2022/04/25 10:05:46;;;;;;;1.83;1.73;;;11.80;99.90;;;;;;5072637;28;20501;-69
2022/04/25 10:08:17;;;;;;;4.00;2.23;;;11.80;99.90;;;;;;5073318;28;20543;-69
2022/04/25 10:10:48;;;;;;;1.67;1.57;;;12.00;99.90;;;;;;5073382;28;21125;-70
2022/04/25 10:13:14;;;;;;;1.63;1.53;;;12.10;99.90;;;;;;5073334;28;20413;-69
2022/04/25 10:15:40;;;;;;;3.10;2.17;;;11.80;99.90;;;;;;5073197;28;20416;-69
2022/04/25 10:18:07;;;;;;;2.87;1.80;;;12.00;99.90;;;;;;5073425;28;20174;-69
2022/04/25 10:20:36;;;;;;;2.23;1.63;;;11.90;99.90;;;;;;5080648;22;20485;-67
2022/04/25 10:23:03;;;;;;;2.90;2.13;;;11.90;99.90;;;;;;5069294;28;20740;-67
2022/04/25 10:25:29;;;;;;;2.60;2.40;;;11.70;99.90;;;;;;5072582;28;20423;-67
2022/04/25 10:27:58;;;;;;;9.37;2.20;;;11.50;99.90;;;;;;5072794;28;20900;-67
2022/04/25 10:30:29;;;;;;;3.13;1.57;;;11.70;99.90;;;;;;5072696;28;20611;-67
2022/04/25 10:33:16;;;;;;;2.80;2.10;;;11.80;99.90;;;;;;5072917;28;20844;-68
2022/04/25 10:35:42;;;;;;;2.93;2.27;;;11.80;99.90;;;;;;5072594;28;20765;-67
2022/04/25 10:38:47;;;;;;;3.13;2.30;;;11.80;99.90;;;;;;5071599;28;20507;-68
2022/04/25 10:44:18;;;;;;;2.30;2.10;;;11.50;99.90;;;;;;5054012;28;20420;-68
2022/04/25 10:47:05;;;;;;;3.23;2.13;;;11.90;99.90;;;;;;5052230;28;20483;-68
2022/04/25 10:49:42;;;;;;;2.63;2.10;;;11.80;99.90;;;;;;5052486;28;20774;-69
2022/04/25 10:52:53;;;;;;;2.33;1.90;;;11.80;99.90;;;;;;5052778;28;20470;-68
2022/04/25 10:55:21;;;;;;;2.10;1.90;;;12.00;99.90;;;;;;5052000;28;20586;-67
2022/04/25 10:58:02;;;;;;;3.60;1.70;;;11.90;99.90;;;;;;5070298;28;20419;-68
2022/04/25 11:00:47;;;;;;;1.70;1.60;;;12.10;99.90;;;;;;5071840;28;20945;-68
2022/04/25 11:03:15;;;;;;;4.17;2.00;;;12.00;99.90;;;;;;5072422;28;20533;-68
2022/04/25 11:05:44;;;;;;;6.57;1.97;;;12.50;99.90;;;;;;5072035;28;20428;-67
2022/04/25 11:08:18;;;;;;;4.17;1.90;;;12.80;99.90;;;;;;5072292;28;20499;-68
2022/04/25 11:10:47;;;;;;;3.53;2.10;;;12.90;99.90;;;;;;5071886;28;20432;-68
2022/04/25 11:13:16;;;;;;;5.03;1.40;;;12.40;99.90;;;;;;5071733;28;21017;-68
2022/04/25 11:15:47;;;;;;;10.53;1.97;;;12.20;99.90;;;;;;5072013;28;20396;-69
2022/04/25 11:18:33;;;;;;;2.17;1.80;;;12.00;99.90;;;;;;5072065;28;20820;-68
2022/04/25 11:21:14;;;;;;;3.40;2.20;;;12.10;99.90;;;;;;5070973;28;20855;-67
2022/04/25 11:23:47;;;;;;;4.00;2.00;;;12.30;99.90;;;;;;5071942;28;20506;-69
2022/04/25 11:26:22;;;;;;;2.17;1.73;;;12.40;99.90;;;;;;5071816;28;20440;-68
2022/04/25 11:28:58;;;;;;;3.30;2.43;;;12.20;99.90;;;;;;5071569;28;20422;-68
2022/04/25 11:31:25;;;;;;;2.53;2.00;;;12.30;99.90;;;;;;5071670;28;20419;-68
2022/04/25 11:33:53;;;;;;;1.97;1.47;;;12.40;99.90;;;;;;5071730;28;20768;-69
2022/04/25 11:36:20;;;;;;;2.17;2.00;;;12.40;99.90;;;;;;5071661;28;20392;-68
2022/04/25 11:41:34;;;;;;;2.20;2.00;;;12.60;99.90;;;;;;5072166;28;20416;-69
2022/04/25 11:44:00;;;;;;;3.20;2.73;;;12.80;99.90;;;;;;5071741;28;20454;-68
2022/04/25 11:46:26;;;;;;;1.50;1.37;;;12.70;99.90;;;;;;5071376;28;20403;-67
2022/04/25 11:48:53;;;;;;;2.67;1.90;;;12.70;99.90;;;;;;5071464;28;20853;-68
2022/04/25 11:51:33;;;;;;;2.10;1.83;;;12.60;99.90;;;;;;5053820;28;20408;-68
2022/04/25 11:54:01;;;;;;;2.70;2.50;;;12.50;99.90;;;;;;5071472;28;20894;-67
2022/04/25 11:56:27;;;;;;;3.10;2.13;;;12.70;99.90;;;;;;5071306;28;20401;-68
2022/04/25 11:58:55;;;;;;;3.60;1.90;;;12.80;99.90;;;;;;5071261;28;20408;-67
2022/04/25 12:01:38;;;;;;;2.57;2.00;;;12.90;99.90;;;;;;5071092;28;20408;-68
2022/04/25 12:04:22;;;;;;;5.20;2.40;;;13.10;99.90;;;;;;5071522;28;20407;-67
2022/04/25 12:07:03;;;;;;;2.87;2.00;;;13.00;99.90;;;;;;5071569;28;20448;-68
2022/04/25 12:15:35;;;;;;;2.13;1.63;;;13.60;99.90;;;;;;5074474;28;20698;-68
2022/04/25 12:18:15;;;;;;;4.27;1.90;;;13.80;99.90;;;;;;5072476;28;20487;-67
2022/04/25 12:20:43;;;;;;;2.13;2.03;;;13.80;99.90;;;;;;5071284;28;20819;-67
2022/04/25 12:23:10;;;;;;;2.53;1.80;;;13.90;99.90;;;;;;5071298;28;20954;-66
2022/04/25 12:25:43;;;;;;;3.20;2.17;;;13.30;99.90;;;;;;5053087;28;20445;-67
2022/04/25 12:28:15;;;;;;;2.70;2.10;;;13.40;99.90;;;;;;5073193;28;20820;-67
2022/04/25 12:30:48;;;;;;;4.13;1.70;;;13.70;99.90;;;;;;5074773;28;20510;-68
2022/04/25 12:33:15;;;;;;;3.47;2.60;;;14.00;99.90;;;;;;5074918;28;20425;-67
2022/04/25 12:35:43;;;;;;;3.47;1.80;;;13.90;99.90;;;;;;5074826;28;20754;-67
2022/04/25 12:38:09;;;;;;;2.30;2.03;;;14.00;99.90;;;;;;5075193;28;20462;-67
2022/04/25 12:40:55;;;;;;;3.00;2.20;;;14.40;99.90;;;;;;5074779;28;20834;-67
2022/04/25 12:43:40;;;;;;;5.57;2.80;;;14.10;99.90;;;;;;5074826;28;20518;-67
2022/04/25 12:46:09;;;;;;;2.50;2.07;;;14.30;99.90;;;;;;5074735;28;20404;-67
2022/04/25 12:49:12;;;;;;;3.17;2.60;;;14.40;99.90;;;;;;5074517;28;20456;-67
2022/04/25 12:51:56;;;;;;;2.53;2.33;;;14.30;99.90;;;;;;5074457;28;20956;-68
2022/04/25 12:54:21;;;;;;;3.77;2.37;;;14.40;99.90;;;;;;5074686;28;20432;-69
2022/04/25 12:56:49;;;;;;;3.03;2.30;;;14.50;99.90;;;;;;5074609;28;20408;-67
2022/04/25 12:59:27;;;;;;;2.73;2.27;;;14.40;99.90;;;;;;5074461;28;20198;-67
2022/04/25 13:02:02;;;;;;;2.80;1.90;;;14.50;99.90;;;;;;5074612;28;20440;-68
2022/04/25 13:04:28;;;;;;;2.60;2.30;;;14.60;99.90;;;;;;5074315;28;20499;-67
2022/04/25 13:06:53;;;;;;;2.80;2.60;;;14.30;99.90;;;;;;5074111;28;20459;-67
2022/04/25 13:09:19;;;;;;;2.43;1.93;;;14.40;99.90;;;;;;5074309;28;20197;-69
2022/04/25 13:11:44;;;;;;;3.10;2.80;;;14.60;99.90;;;;;;5074749;28;20166;-68
2022/04/25 13:14:10;;;;;;;2.60;2.10;;;14.70;99.90;;;;;;5074554;28;20166;-67
2022/04/25 13:16:36;;;;;;;2.57;2.37;;;14.80;99.90;;;;;;5074378;28;20177;-67
2022/04/25 13:19:01;;;;;;;2.47;2.27;;;15.10;99.90;;;;;;5074001;28;20332;-66
2022/04/25 13:21:27;;;;;;;3.13;2.60;;;14.70;99.90;;;;;;5073963;28;20178;-67
2022/04/25 13:23:53;;;;;;;3.50;2.60;;;14.80;99.90;;;;;;5074024;28;20188;-67
2022/04/25 13:26:20;;;;;;;3.70;2.60;;;14.80;99.90;;;;;;5073917;28;20167;-67
2022/04/25 13:28:46;;;;;;;3.10;2.90;;;14.60;99.90;;;;;;5073778;28;20924;-67
2022/04/25 13:31:14;;;;;;;2.30;2.10;;;14.50;99.90;;;;;;5074193;28;20517;-67
2022/04/25 13:33:39;;;;;;;2.40;2.20;;;14.60;99.90;;;;;;5073925;28;20408;-67
2022/04/25 13:36:05;;;;;;;3.07;2.77;;;14.80;99.90;;;;;;5073982;28;20435;-67
2022/04/25 13:38:32;;;;;;;4.43;2.73;;;14.90;99.90;;;;;;5072868;28;20448;-67